createdAt,value
2022-12-04T00:02:12.021Z,2.70
2022-12-04T00:04:38.721Z,2.90
2022-12-04T00:07:05.298Z,2.90
2022-12-04T00:09:31.923Z,3.00
2022-12-04T00:11:58.540Z,2.80
2022-12-04T00:14:25.176Z,2.90
2022-12-04T00:16:51.920Z,3.00
2022-12-04T00:19:18.641Z,3.00
2022-12-04T00:21:45.921Z,2.80
2022-12-04T00:24:12.887Z,2.80
2022-12-04T00:26:39.547Z,2.80
2022-12-04T00:29:06.226Z,2.90
2022-12-04T00:31:33.459Z,2.80
2022-12-04T00:34:00.839Z,2.80
2022-12-04T00:36:29.874Z,2.70
2022-12-04T00:38:58.544Z,2.80
2022-12-04T00:41:27.824Z,2.90
2022-12-04T00:43:54.825Z,2.90
2022-12-04T00:46:22.149Z,2.90
2022-12-04T00:48:49.324Z,2.90
2022-12-04T00:51:18.418Z,3.60
2022-12-04T00:53:45.633Z,2.50
2022-12-04T00:56:14.990Z,2.40
2022-12-04T00:58:41.934Z,2.30
2022-12-04T01:01:14.686Z,2.20
2022-12-04T01:03:41.814Z,2.20
2022-12-04T01:06:21.573Z,2.30
2022-12-04T01:08:50.140Z,2.40
2022-12-04T01:11:17.545Z,2.50
2022-12-04T01:13:44.731Z,2.30
2022-12-04T01:16:23.396Z,2.30
2022-12-04T01:18:50.541Z,2.30
2022-12-04T01:21:18.064Z,2.30
2022-12-04T01:23:44.749Z,2.40
2022-12-04T01:26:12.615Z,2.50
2022-12-04T01:28:39.704Z,2.50
2022-12-04T01:31:08.276Z,2.50
2022-12-04T01:33:36.272Z,2.30
2022-12-04T01:36:08.297Z,2.30
2022-12-04T01:38:36.115Z,2.30
2022-12-04T01:41:03.690Z,2.30
2022-12-04T01:43:32.296Z,2.40
2022-12-04T01:46:01.031Z,2.50
2022-12-04T01:48:33.928Z,2.50
2022-12-04T01:51:14.602Z,2.60
2022-12-04T01:53:45.343Z,2.50
2022-12-04T01:56:13.501Z,2.40
2022-12-04T01:58:46.164Z,2.40
2022-12-04T02:01:13.131Z,2.40
2022-12-04T02:03:39.925Z,2.30
2022-12-04T02:06:07.262Z,2.10
2022-12-04T02:08:34.951Z,2.20
2022-12-04T02:11:19.781Z,2.40
2022-12-04T02:13:49.250Z,2.30
2022-12-04T02:16:32.245Z,2.40
2022-12-04T02:19:39.457Z,2.40
2022-12-04T02:22:16.789Z,2.30
2022-12-04T02:24:50.328Z,2.30
2022-12-04T02:27:44.560Z,2.40
2022-12-04T02:30:14.728Z,2.50
2022-12-04T02:32:50.616Z,2.30
2022-12-04T02:35:33.112Z,2.20
2022-12-04T02:38:25.020Z,2.10
2022-12-04T02:40:58.596Z,2.20
2022-12-04T02:43:52.730Z,2.20
2022-12-04T02:46:38.519Z,2.20
2022-12-04T02:49:12.151Z,2.20
2022-12-04T02:51:43.388Z,2.30
2022-12-04T02:54:25.483Z,2.10
2022-12-04T02:56:54.470Z,2.00
2022-12-04T02:59:48.768Z,2.00
2022-12-04T03:02:32.052Z,2.30
2022-12-04T03:05:03.010Z,2.40
2022-12-04T03:07:37.016Z,2.50
2022-12-04T03:10:09.076Z,2.60
2022-12-04T03:12:50.697Z,2.60
2022-12-04T03:15:37.440Z,2.50
2022-12-04T03:18:16.181Z,2.50
2022-12-04T03:20:45.189Z,2.40
2022-12-04T03:23:18.082Z,2.30
2022-12-04T03:25:57.727Z,2.30
2022-12-04T03:28:53.543Z,2.50
2022-12-04T03:31:38.059Z,2.50
2022-12-04T03:34:07.503Z,2.50
2022-12-04T03:36:42.797Z,2.40
2022-12-04T03:39:17.893Z,2.10
2022-12-04T03:41:59.579Z,3.10
2022-12-04T03:44:58.035Z,2.30
2022-12-04T03:48:06.508Z,2.40
2022-12-04T03:50:50.003Z,2.60
2022-12-04T03:53:41.767Z,2.60
2022-12-04T03:56:19.087Z,2.60
2022-12-04T03:58:49.325Z,2.70
2022-12-04T04:01:20.189Z,2.50
2022-12-04T04:03:53.196Z,2.40
2022-12-04T04:06:27.054Z,2.40
2022-12-04T04:08:58.790Z,2.20
2022-12-04T04:11:28.730Z,2.20
2022-12-04T04:14:22.528Z,2.30
2022-12-04T04:17:15.063Z,2.30
2022-12-04T04:20:04.079Z,2.20
2022-12-04T04:22:55.766Z,2.30
2022-12-04T04:25:25.819Z,2.30
2022-12-04T04:27:57.693Z,2.40
2022-12-04T04:30:24.979Z,2.40
2022-12-04T04:33:03.168Z,2.50
2022-12-04T04:35:52.673Z,2.60
2022-12-04T04:38:39.371Z,2.60
2022-12-04T04:41:23.595Z,2.50
2022-12-04T04:44:34.607Z,2.50
2022-12-04T04:47:06.531Z,2.60
2022-12-04T04:49:35.898Z,2.70
2022-12-04T04:52:03.019Z,2.60
2022-12-04T04:54:32.118Z,2.80
2022-12-04T04:56:58.778Z,2.80
2022-12-04T04:59:25.436Z,2.60
2022-12-04T05:01:52.463Z,2.60
2022-12-04T05:04:19.179Z,2.60
2022-12-04T05:06:45.824Z,2.70
2022-12-04T05:09:12.512Z,2.60
2022-12-04T05:11:39.105Z,2.50
2022-12-04T05:14:06.136Z,2.40
2022-12-04T05:16:32.887Z,2.50
2022-12-04T05:19:18.218Z,2.50
2022-12-04T05:21:44.811Z,2.50
2022-12-04T05:24:11.463Z,2.50
2022-12-04T05:26:38.133Z,2.40
2022-12-04T05:29:04.770Z,2.60
2022-12-04T05:31:31.692Z,2.40
2022-12-04T05:33:58.473Z,2.30
2022-12-04T05:36:25.120Z,2.40
2022-12-04T05:38:52.620Z,2.40
2022-12-04T05:41:19.260Z,2.50
2022-12-04T05:43:45.859Z,2.50
2022-12-04T05:46:12.578Z,2.40
2022-12-04T05:48:39.261Z,2.50
2022-12-04T05:51:10.751Z,2.40
2022-12-04T05:53:38.306Z,2.50
2022-12-04T05:56:07.355Z,2.40
2022-12-04T05:58:38.445Z,2.40
2022-12-04T06:01:13.112Z,2.40
2022-12-04T06:03:39.775Z,2.50
2022-12-04T06:06:21.057Z,2.50
2022-12-04T06:08:53.122Z,2.50
2022-12-04T06:11:23.044Z,2.40
2022-12-04T06:13:50.175Z,2.40
2022-12-04T06:16:22.472Z,2.60
2022-12-04T06:18:51.684Z,2.60
2022-12-04T06:21:19.332Z,2.70
2022-12-04T06:23:46.041Z,2.60
2022-12-04T06:26:13.075Z,2.70
2022-12-04T06:28:39.967Z,2.60
2022-12-04T06:31:09.517Z,2.70
2022-12-04T06:33:36.321Z,2.70
2022-12-04T06:36:18.039Z,2.80
2022-12-04T06:38:45.705Z,2.70
2022-12-04T06:41:16.195Z,2.60
2022-12-04T06:43:43.451Z,2.60
2022-12-04T06:46:25.415Z,2.60
2022-12-04T06:48:54.147Z,2.70
2022-12-04T06:51:24.120Z,2.60
2022-12-04T06:53:51.183Z,2.60
2022-12-04T06:56:20.526Z,2.70
2022-12-04T06:58:48.907Z,2.50
2022-12-04T07:01:17.954Z,2.60
2022-12-04T07:03:51.268Z,2.80
2022-12-04T07:06:25.885Z,2.90
2022-12-04T07:08:54.872Z,3.00
2022-12-04T07:11:22.403Z,3.10
2022-12-04T07:13:50.615Z,2.80
2022-12-04T07:16:19.730Z,2.90
2022-12-04T07:18:46.916Z,3.00
2022-12-04T07:21:19.988Z,3.10
2022-12-04T07:23:51.383Z,3.10
2022-12-04T07:26:18.748Z,3.00
2022-12-04T07:28:45.758Z,2.90
2022-12-04T07:31:15.128Z,2.90
2022-12-04T07:33:42.668Z,2.90
2022-12-04T07:36:12.853Z,3.00
2022-12-04T07:38:39.833Z,3.00
2022-12-04T07:41:07.639Z,3.00
2022-12-04T07:43:34.713Z,3.10
2022-12-04T07:46:10.998Z,3.10
2022-12-04T07:48:37.699Z,3.20
2022-12-04T07:51:06.876Z,3.20
2022-12-04T07:53:34.997Z,3.10
2022-12-04T07:56:02.293Z,3.20
2022-12-04T07:58:28.915Z,3.30
2022-12-04T08:00:55.709Z,3.20
2022-12-04T08:03:22.419Z,3.20
2022-12-04T08:05:49.051Z,3.20
2022-12-04T08:08:15.749Z,3.10
2022-12-04T08:10:42.457Z,3.20
2022-12-04T08:13:09.081Z,3.00
2022-12-04T08:15:35.841Z,2.90
2022-12-04T08:18:02.600Z,2.80
2022-12-04T08:20:29.598Z,2.90
2022-12-04T08:22:56.326Z,3.00
2022-12-04T08:25:23.229Z,3.00
2022-12-04T08:27:49.999Z,2.90
2022-12-04T08:30:16.920Z,2.90
2022-12-04T08:32:43.905Z,2.90
2022-12-04T08:35:10.480Z,3.00
2022-12-04T08:37:37.100Z,3.00
2022-12-04T08:40:04.594Z,3.20
2022-12-04T08:42:31.139Z,3.30
2022-12-04T08:44:57.773Z,3.20
2022-12-04T08:47:24.372Z,3.10
2022-12-04T08:49:50.931Z,3.10
2022-12-04T08:52:17.622Z,3.80
2022-12-04T08:54:44.308Z,4.40
2022-12-04T08:57:10.951Z,4.20
2022-12-04T08:59:37.556Z,4.10
2022-12-04T09:02:04.241Z,4.20
2022-12-04T09:04:30.938Z,4.30
2022-12-04T09:06:57.602Z,4.00
2022-12-04T09:09:24.221Z,3.90
2022-12-04T09:11:50.914Z,3.70
2022-12-04T09:14:19.285Z,3.20
2022-12-04T09:16:46.491Z,4.00
2022-12-04T09:19:13.153Z,4.00
2022-12-04T09:21:39.798Z,3.90
2022-12-04T09:24:06.504Z,3.90
2022-12-04T09:26:33.349Z,3.90
2022-12-04T09:29:01.720Z,3.90
2022-12-04T09:31:28.873Z,3.80
2022-12-04T09:33:57.908Z,3.80
2022-12-04T09:36:25.008Z,3.80
2022-12-04T09:38:53.230Z,3.80
2022-12-04T09:41:53.915Z,3.90
2022-12-04T09:44:35.148Z,4.00
2022-12-04T09:47:27.500Z,3.90
2022-12-04T09:50:00.195Z,3.80
2022-12-04T09:52:48.794Z,3.70
2022-12-04T09:55:40.329Z,3.60
2022-12-04T09:58:14.041Z,3.60
2022-12-04T10:00:44.377Z,3.80
2022-12-04T10:03:16.475Z,3.80
2022-12-04T10:06:12.544Z,4.00
2022-12-04T10:08:41.669Z,4.10
2022-12-04T10:11:44.583Z,3.20
2022-12-04T10:14:46.142Z,3.90
2022-12-04T10:17:30.875Z,4.00
2022-12-04T10:20:17.102Z,3.90
2022-12-04T10:23:14.121Z,3.90
2022-12-04T10:25:42.001Z,4.00
2022-12-04T10:28:20.675Z,3.90
2022-12-04T10:30:48.500Z,3.90
2022-12-04T10:33:41.287Z,4.10
2022-12-04T10:36:13.858Z,4.00
2022-12-04T10:38:42.968Z,4.00
2022-12-04T10:41:29.418Z,4.10
2022-12-04T10:43:56.096Z,4.00
2022-12-04T10:46:29.309Z,4.00
2022-12-04T10:49:03.200Z,4.00
2022-12-04T10:51:40.696Z,4.00
2022-12-04T10:54:48.316Z,4.10
2022-12-04T10:57:15.231Z,4.20
2022-12-04T10:59:56.510Z,4.00
2022-12-04T11:02:32.988Z,4.00
2022-12-04T11:05:05.544Z,4.00
2022-12-04T11:07:47.547Z,4.00
2022-12-04T11:10:38.863Z,4.10
2022-12-04T11:13:17.660Z,4.10
2022-12-04T11:15:45.576Z,4.20
2022-12-04T11:18:26.624Z,4.30
2022-12-04T11:20:56.453Z,4.30
2022-12-04T11:23:24.377Z,4.50
2022-12-04T11:25:54.507Z,4.70
2022-12-04T11:28:47.112Z,4.80
2022-12-04T11:31:19.920Z,4.60
2022-12-04T11:33:49.816Z,4.60
2022-12-04T11:36:31.067Z,5.30
2022-12-04T11:39:19.042Z,5.00
2022-12-04T11:41:45.850Z,4.60
2022-12-04T11:44:26.952Z,4.50
2022-12-04T11:46:55.838Z,4.60
2022-12-04T11:49:25.404Z,4.60
2022-12-04T11:52:24.503Z,4.40
2022-12-04T11:55:02.364Z,4.50
2022-12-04T11:57:50.596Z,4.50
2022-12-04T12:00:22.775Z,4.50
2022-12-04T12:03:10.557Z,4.40
2022-12-04T12:06:08.502Z,4.30
2022-12-04T12:08:43.247Z,4.40
2022-12-04T12:11:37.529Z,4.50
2022-12-04T12:14:21.671Z,4.60
2022-12-04T12:16:59.053Z,4.50
2022-12-04T12:19:46.678Z,4.60
2022-12-04T12:22:36.639Z,4.60
2022-12-04T12:25:27.305Z,4.50
2022-12-04T12:28:04.522Z,4.60
2022-12-04T12:31:06.019Z,4.50
2022-12-04T12:33:46.036Z,4.30
2022-12-04T12:36:15.085Z,4.20
2022-12-04T12:39:03.148Z,4.30
2022-12-04T12:41:36.864Z,4.30
2022-12-04T12:44:11.693Z,4.30
2022-12-04T12:46:49.013Z,4.30
2022-12-04T12:49:39.776Z,4.40
2022-12-04T12:52:35.118Z,4.50
2022-12-04T12:55:18.088Z,4.60
2022-12-04T12:57:52.244Z,4.70
2022-12-04T13:00:23.049Z,4.60
2022-12-04T13:02:53.707Z,4.60
2022-12-04T13:05:27.381Z,4.50
2022-12-04T13:08:15.768Z,4.60
2022-12-04T13:10:46.024Z,4.60
2022-12-04T13:13:23.222Z,4.70
2022-12-04T13:16:12.895Z,4.80
2022-12-04T13:18:49.613Z,4.80
2022-12-04T13:21:45.524Z,4.70
2022-12-04T13:24:30.308Z,4.70
2022-12-04T13:27:07.759Z,4.80
2022-12-04T13:29:52.207Z,4.90
2022-12-04T13:32:56.757Z,4.90
2022-12-04T13:36:00.166Z,4.90
2022-12-04T13:38:33.550Z,4.80
2022-12-04T13:41:07.022Z,4.90
2022-12-04T13:43:44.467Z,4.80
2022-12-04T13:46:32.060Z,4.90
2022-12-04T13:49:25.951Z,4.80
2022-12-04T13:51:53.131Z,4.80
2022-12-04T13:54:23.209Z,4.80
2022-12-04T13:56:52.544Z,4.90
2022-12-04T13:59:22.224Z,5.00
2022-12-04T14:01:52.573Z,5.00
2022-12-04T14:04:27.211Z,5.00
2022-12-04T14:06:57.032Z,4.90
2022-12-04T14:09:41.627Z,5.00
2022-12-04T14:12:13.927Z,5.10
2022-12-04T14:14:45.739Z,5.10
2022-12-04T14:17:34.512Z,5.10
2022-12-04T14:20:08.420Z,5.10
2022-12-04T14:22:37.827Z,5.20
2022-12-04T14:25:13.315Z,5.20
2022-12-04T14:27:42.765Z,5.20
2022-12-04T14:30:20.425Z,5.00
2022-12-04T14:32:50.511Z,5.40
2022-12-04T14:35:23.811Z,5.40
2022-12-04T14:38:04.254Z,5.20
2022-12-04T14:40:39.019Z,5.10
2022-12-04T14:43:05.792Z,5.20
2022-12-04T14:45:43.674Z,5.20
2022-12-04T14:48:36.295Z,5.10
2022-12-04T14:51:33.072Z,5.00
2022-12-04T14:54:25.115Z,5.00
2022-12-04T14:57:17.921Z,5.00
2022-12-04T14:59:46.272Z,4.40
2022-12-04T15:02:18.454Z,5.10
2022-12-04T15:04:47.198Z,5.00
2022-12-04T15:07:26.170Z,5.00
2022-12-04T15:10:16.718Z,5.10
2022-12-04T15:12:52.369Z,5.10
2022-12-04T15:15:25.099Z,5.10
2022-12-04T15:18:13.598Z,5.10
2022-12-04T15:20:58.060Z,5.10
2022-12-04T15:23:41.355Z,5.10
2022-12-04T15:26:13.035Z,5.10
2022-12-04T15:28:47.588Z,5.10
2022-12-04T15:31:38.431Z,5.10
2022-12-04T15:34:13.364Z,5.10
2022-12-04T15:37:00.592Z,5.90
2022-12-04T15:39:29.141Z,5.20
2022-12-04T15:42:22.279Z,5.20
2022-12-04T15:44:52.565Z,5.10
2022-12-04T15:47:25.899Z,5.10
2022-12-04T15:49:52.781Z,5.20
2022-12-04T15:52:21.695Z,5.30
2022-12-04T15:54:56.691Z,5.30
2022-12-04T15:57:29.377Z,5.20
2022-12-04T16:00:01.038Z,5.20
2022-12-04T16:02:41.549Z,5.30
2022-12-04T16:05:20.065Z,5.40
2022-12-04T16:07:58.300Z,5.40
2022-12-04T16:10:28.421Z,5.30
2022-12-04T16:13:04.604Z,5.20
2022-12-04T16:15:49.161Z,5.30
2022-12-04T16:18:15.743Z,5.20
2022-12-04T16:20:42.396Z,5.30
2022-12-04T16:23:09.678Z,5.30
2022-12-04T16:25:36.321Z,5.40
2022-12-04T16:28:02.997Z,5.50
2022-12-04T16:30:33.339Z,5.40
2022-12-04T16:32:59.931Z,5.40
2022-12-04T16:35:26.586Z,5.50
2022-12-04T16:37:53.218Z,5.70
2022-12-04T16:40:19.873Z,5.50
2022-12-04T16:42:46.461Z,5.40
2022-12-04T16:45:27.606Z,5.40
2022-12-04T16:47:54.426Z,5.40
2022-12-04T16:50:21.709Z,5.40
2022-12-04T16:52:48.328Z,5.40
2022-12-04T16:55:51.128Z,5.40
2022-12-04T16:58:19.532Z,5.40
2022-12-04T17:00:56.625Z,5.40
2022-12-04T17:03:33.122Z,5.50
2022-12-04T17:06:00.914Z,5.40
2022-12-04T17:08:28.295Z,5.60
2022-12-04T17:10:54.955Z,5.60
2022-12-04T17:13:22.209Z,4.90
2022-12-04T17:15:49.070Z,5.60
2022-12-04T17:18:20.785Z,6.50
2022-12-04T17:20:47.845Z,6.50
2022-12-04T17:23:14.653Z,6.90
2022-12-04T17:25:41.313Z,7.20
2022-12-04T17:28:08.053Z,7.10
2022-12-04T17:30:36.429Z,6.90
2022-12-04T17:33:04.499Z,7.10
2022-12-04T17:35:31.365Z,7.10
2022-12-04T17:38:03.928Z,6.80
2022-12-04T17:40:32.755Z,6.50
2022-12-04T17:42:59.635Z,6.10
2022-12-04T17:45:26.268Z,6.00
2022-12-04T17:47:52.923Z,6.10
2022-12-04T17:50:19.546Z,5.90
2022-12-04T17:52:46.347Z,5.80
2022-12-04T17:55:13.047Z,5.80
2022-12-04T17:57:39.749Z,5.80
2022-12-04T18:00:07.661Z,5.80
2022-12-04T18:02:34.312Z,5.70
2022-12-04T18:05:00.968Z,5.70
2022-12-04T18:07:27.702Z,5.80
2022-12-04T18:09:54.588Z,5.70
2022-12-04T18:12:21.463Z,5.80
2022-12-04T18:14:48.080Z,5.80
2022-12-04T18:17:17.475Z,5.90
2022-12-04T18:19:44.099Z,5.90
2022-12-04T18:22:10.885Z,6.00
2022-12-04T18:24:37.660Z,5.90
2022-12-04T18:27:05.378Z,5.80
2022-12-04T18:29:31.969Z,5.80
2022-12-04T18:31:58.731Z,5.80
2022-12-04T18:34:25.453Z,5.90
2022-12-04T18:36:52.463Z,5.80
2022-12-04T18:39:21.462Z,5.80
2022-12-04T18:41:48.795Z,5.70
2022-12-04T18:44:16.500Z,5.80
2022-12-04T18:46:43.213Z,5.70
2022-12-04T18:49:10.657Z,5.80
2022-12-04T18:51:46.983Z,5.80
2022-12-04T18:54:21.339Z,5.90
2022-12-04T18:56:48.307Z,5.90
2022-12-04T18:59:23.640Z,6.00
2022-12-04T19:01:51.302Z,5.90
2022-12-04T19:04:19.670Z,5.80
2022-12-04T19:06:48.683Z,5.70
2022-12-04T19:09:19.487Z,5.80
2022-12-04T19:11:46.970Z,5.80
2022-12-04T19:14:22.782Z,5.70
2022-12-04T19:16:50.861Z,5.60
2022-12-04T19:19:18.014Z,5.70
2022-12-04T19:21:44.720Z,5.70
2022-12-04T19:24:12.133Z,5.70
2022-12-04T19:26:39.030Z,5.70
2022-12-04T19:29:07.057Z,5.70
2022-12-04T19:31:36.986Z,5.70
2022-12-04T19:34:04.238Z,5.70
2022-12-04T19:36:33.018Z,5.80
2022-12-04T19:39:01.095Z,6.10
2022-12-04T19:41:30.797Z,6.20
2022-12-04T19:44:01.132Z,6.00
2022-12-04T19:46:31.012Z,5.90
2022-12-04T19:49:02.103Z,5.90
2022-12-04T19:51:32.072Z,5.90
2022-12-04T19:53:59.111Z,6.00
2022-12-04T19:56:27.544Z,5.90
2022-12-04T19:58:56.435Z,5.90
2022-12-04T20:01:25.353Z,6.60
2022-12-04T20:03:52.903Z,5.90
2022-12-04T20:06:22.105Z,5.80
2022-12-04T20:08:54.785Z,5.90
2022-12-04T20:11:21.974Z,6.00
2022-12-04T20:13:49.454Z,6.10
2022-12-04T20:16:18.043Z,6.10
2022-12-04T20:18:45.589Z,6.10
2022-12-04T20:21:13.075Z,6.00
2022-12-04T20:23:50.970Z,6.00
2022-12-04T20:26:23.616Z,5.90
2022-12-04T20:28:50.489Z,6.50
2022-12-04T20:31:21.547Z,5.90
2022-12-04T20:33:50.528Z,5.90
2022-12-04T20:36:21.831Z,5.80
2022-12-04T20:38:51.349Z,5.70
2022-12-04T20:41:18.677Z,5.80
2022-12-04T20:43:47.070Z,5.90
2022-12-04T20:46:34.826Z,5.80
2022-12-04T20:49:06.224Z,5.80
2022-12-04T20:51:38.988Z,5.90
2022-12-04T20:54:06.649Z,6.10
2022-12-04T20:56:36.684Z,6.30
2022-12-04T20:59:06.074Z,5.90
2022-12-04T21:01:33.308Z,5.90
2022-12-04T21:04:00.885Z,6.00
2022-12-04T21:06:36.413Z,5.80
2022-12-04T21:09:08.804Z,5.70
2022-12-04T21:11:41.054Z,5.70
2022-12-04T21:14:30.393Z,5.80
2022-12-04T21:16:57.503Z,5.80
2022-12-04T21:19:24.664Z,5.80
2022-12-04T21:21:51.612Z,6.00
2022-12-04T21:24:20.188Z,5.90
2022-12-04T21:26:47.397Z,6.00
2022-12-04T21:29:15.231Z,5.90
2022-12-04T21:31:42.533Z,5.80
2022-12-04T21:34:11.822Z,5.80
2022-12-04T21:36:38.461Z,5.70
2022-12-04T21:39:05.914Z,5.80
2022-12-04T21:41:51.272Z,5.80
2022-12-04T21:44:19.848Z,5.80
2022-12-04T21:46:46.851Z,5.90
2022-12-04T21:49:15.392Z,5.90
2022-12-04T21:51:58.845Z,5.90
2022-12-04T21:54:27.665Z,6.00
2022-12-04T21:56:55.064Z,6.00
2022-12-04T21:59:21.805Z,5.90
2022-12-04T22:01:48.625Z,5.90
2022-12-04T22:04:15.339Z,5.90
2022-12-04T22:06:42.300Z,5.90
2022-12-04T22:09:10.949Z,5.90
2022-12-04T22:11:38.875Z,6.00
2022-12-04T22:14:05.569Z,6.00
2022-12-04T22:16:35.759Z,6.00
2022-12-04T22:19:05.091Z,6.00
2022-12-04T22:21:31.788Z,6.00
2022-12-04T22:24:00.677Z,6.00
2022-12-04T22:26:28.681Z,5.90
2022-12-04T22:28:55.985Z,5.90
2022-12-04T22:31:25.105Z,5.80
2022-12-04T22:33:53.297Z,5.90
2022-12-04T22:36:22.521Z,5.90
2022-12-04T22:39:08.717Z,6.00
2022-12-04T22:41:36.552Z,6.10
2022-12-04T22:44:03.974Z,6.00
2022-12-04T22:46:30.844Z,5.90
2022-12-04T22:48:58.757Z,5.90
2022-12-04T22:51:25.507Z,5.90
2022-12-04T22:53:54.469Z,5.80
2022-12-04T22:56:25.594Z,5.80
2022-12-04T22:58:53.217Z,5.90
2022-12-04T23:01:21.249Z,5.90
2022-12-04T23:03:48.363Z,6.10
2022-12-04T23:06:16.301Z,5.90
2022-12-04T23:08:44.217Z,5.90
2022-12-04T23:11:14.258Z,5.90
2022-12-04T23:13:41.466Z,5.90
2022-12-04T23:16:09.823Z,5.20
2022-12-04T23:18:37.164Z,5.80
2022-12-04T23:21:12.178Z,6.00
2022-12-04T23:23:41.154Z,5.90
2022-12-04T23:26:11.186Z,5.90
2022-12-04T23:28:37.959Z,6.00
2022-12-04T23:31:05.173Z,6.00
2022-12-04T23:33:32.705Z,6.00
2022-12-04T23:36:00.833Z,6.00
2022-12-04T23:38:28.739Z,6.00
2022-12-04T23:41:28.758Z,5.80
2022-12-04T23:43:56.544Z,5.80
2022-12-04T23:46:27.430Z,5.90
2022-12-04T23:48:54.729Z,5.90
2022-12-04T23:51:21.778Z,5.90
2022-12-04T23:53:49.257Z,6.00
2022-12-04T23:56:18.871Z,6.00
2022-12-04T23:58:47.569Z,6.00
